createdAt,value
2024-01-26T00:00:52.215Z,5.70
2024-01-26T00:03:27.723Z,5.80
2024-01-26T00:06:03.451Z,5.80
2024-01-26T00:08:37.479Z,5.80
2024-01-26T00:11:11.362Z,5.90
2024-01-26T00:13:45.280Z,5.90
2024-01-26T00:16:19.684Z,5.90
2024-01-26T00:18:53.311Z,6.00
2024-01-26T00:21:30.668Z,6.00
2024-01-26T00:24:06.078Z,6.10
2024-01-26T00:26:39.664Z,6.10
2024-01-26T00:29:13.166Z,6.20
2024-01-26T00:31:47.478Z,6.30
2024-01-26T00:34:21.800Z,6.40
2024-01-26T00:36:58.172Z,6.50
2024-01-26T00:39:31.684Z,6.70
2024-01-26T00:42:07.049Z,7.00
2024-01-26T00:44:41.247Z,7.30
2024-01-26T00:47:16.076Z,7.60
2024-01-26T00:49:53.301Z,7.90
2024-01-26T00:52:28.693Z,8.20
2024-01-26T00:55:02.924Z,8.50
2024-01-26T00:57:36.661Z,8.80
2024-01-26T01:00:11.484Z,9.10
2024-01-26T01:02:46.717Z,9.40
2024-01-26T01:05:20.573Z,9.70
2024-01-26T01:07:57.041Z,10.00
2024-01-26T01:10:31.643Z,10.30
2024-01-26T01:13:07.132Z,10.30
2024-01-26T01:15:42.586Z,10.60
2024-01-26T01:18:16.695Z,10.80
2024-01-26T01:20:50.542Z,10.90
2024-01-26T01:23:26.762Z,11.10
2024-01-26T01:26:00.576Z,11.20
2024-01-26T01:28:37.081Z,11.40
2024-01-26T01:31:10.977Z,11.70
2024-01-26T01:33:46.265Z,11.80
2024-01-26T01:36:20.651Z,12.10
2024-01-26T01:38:57.078Z,12.40
2024-01-26T01:41:30.892Z,12.50
2024-01-26T01:44:04.515Z,12.80
2024-01-26T01:46:38.277Z,13.00
2024-01-26T01:49:12.182Z,13.10
2024-01-26T01:51:50.638Z,13.40
2024-01-26T01:54:28.627Z,13.50
2024-01-26T01:57:03.912Z,13.60
2024-01-26T01:59:39.835Z,13.80
2024-01-26T02:02:13.615Z,13.80
2024-01-26T02:04:47.595Z,13.90
2024-01-26T02:07:21.152Z,14.00
2024-01-26T02:09:57.021Z,14.10
2024-01-26T02:12:31.024Z,14.20
2024-01-26T02:15:05.568Z,14.30
2024-01-26T02:17:42.295Z,14.40
2024-01-26T02:20:16.264Z,14.60
2024-01-26T02:22:49.819Z,14.70
2024-01-26T02:25:25.832Z,14.70
2024-01-26T02:27:59.379Z,14.80
2024-01-26T02:30:36.204Z,15.10
2024-01-26T02:33:10.744Z,15.10
2024-01-26T02:35:44.851Z,15.00
2024-01-26T02:38:19.193Z,15.30
2024-01-26T02:40:55.289Z,15.60
2024-01-26T02:43:28.752Z,15.80
2024-01-26T02:46:02.596Z,15.90
2024-01-26T02:48:36.826Z,16.00
2024-01-26T02:51:11.432Z,16.10
2024-01-26T02:53:46.947Z,16.30
2024-01-26T02:56:26.313Z,16.60
2024-01-26T02:58:59.978Z,17.10
2024-01-26T03:01:35.080Z,17.30
2024-01-26T03:04:09.192Z,17.60
2024-01-26T03:06:42.799Z,17.60
2024-01-26T03:09:16.451Z,18.00
2024-01-26T03:11:52.835Z,18.10
2024-01-26T03:14:27.509Z,18.10
2024-01-26T03:17:01.193Z,18.00
2024-01-26T03:19:38.088Z,18.20
2024-01-26T03:22:11.879Z,18.30
2024-01-26T03:24:49.775Z,18.30
2024-01-26T03:27:28.080Z,18.40
2024-01-26T03:30:02.041Z,18.00
2024-01-26T03:32:36.762Z,17.70
2024-01-26T03:35:12.039Z,17.70
2024-01-26T03:37:46.136Z,17.50
2024-01-26T03:40:21.187Z,17.00
2024-01-26T03:42:58.614Z,16.30
2024-01-26T03:45:33.964Z,15.80
2024-01-26T03:48:09.445Z,15.40
2024-01-26T03:50:47.215Z,14.90
2024-01-26T03:53:21.021Z,14.20
2024-01-26T03:55:54.555Z,13.60
2024-01-26T03:58:30.327Z,13.50
2024-01-26T04:01:04.440Z,13.30
2024-01-26T04:03:38.697Z,13.10
2024-01-26T04:06:12.537Z,12.90
2024-01-26T04:08:46.109Z,12.60
2024-01-26T04:11:20.529Z,12.50
2024-01-26T04:13:56.435Z,12.50
2024-01-26T04:16:30.308Z,12.50
2024-01-26T04:19:04.451Z,12.60
2024-01-26T04:21:38.865Z,12.60
2024-01-26T04:24:13.945Z,12.70
2024-01-26T04:26:47.661Z,12.60
2024-01-26T04:29:23.078Z,12.60
2024-01-26T04:31:56.555Z,12.50
2024-01-26T04:34:30.120Z,12.50
2024-01-26T04:37:03.452Z,12.50
2024-01-26T04:39:36.910Z,12.40
2024-01-26T04:42:11.083Z,12.40
2024-01-26T04:44:47.952Z,12.20
2024-01-26T04:47:21.518Z,12.10
2024-01-26T04:49:55.601Z,12.00
2024-01-26T04:52:29.286Z,11.90
2024-01-26T04:55:02.769Z,11.90
2024-01-26T04:57:36.668Z,11.80
2024-01-26T05:00:15.069Z,11.70
2024-01-26T05:02:49.594Z,11.80
2024-01-26T05:05:23.984Z,11.80
2024-01-26T05:07:57.436Z,11.70
2024-01-26T05:10:31.195Z,11.80
2024-01-26T05:13:05.314Z,11.80
2024-01-26T05:15:43.418Z,11.80
2024-01-26T05:18:17.254Z,11.70
2024-01-26T05:20:51.017Z,11.50
2024-01-26T05:23:25.290Z,11.40
2024-01-26T05:26:00.257Z,11.20
2024-01-26T05:28:35.100Z,11.10
2024-01-26T05:31:12.263Z,11.10
2024-01-26T05:33:46.499Z,11.00
2024-01-26T05:36:20.726Z,11.00
2024-01-26T05:38:54.502Z,11.00
2024-01-26T05:41:28.280Z,11.10
2024-01-26T05:44:02.395Z,11.20
2024-01-26T05:46:38.330Z,11.10
2024-01-26T05:49:12.410Z,11.10
2024-01-26T05:51:46.017Z,11.10
2024-01-26T05:54:19.657Z,11.20
2024-01-26T05:56:53.699Z,11.20
2024-01-26T05:59:27.628Z,11.20
2024-01-26T06:02:05.665Z,11.20
2024-01-26T06:04:39.872Z,11.20
2024-01-26T06:07:15.799Z,11.20
2024-01-26T06:09:49.723Z,11.20
2024-01-26T06:12:25.337Z,11.20
2024-01-26T06:15:03.100Z,11.30
2024-01-26T06:17:45.457Z,11.30
2024-01-26T06:20:19.291Z,11.30
2024-01-26T06:25:52.863Z,11.20
2024-01-26T06:28:47.401Z,11.30
2024-01-26T06:31:20.791Z,11.30
2024-01-26T06:36:46.048Z,11.50
2024-01-26T06:39:19.773Z,11.50
2024-01-26T06:41:54.474Z,11.60
2024-01-26T06:47:15.531Z,11.70
2024-01-26T06:49:58.626Z,11.80
2024-01-26T06:55:19.661Z,11.90
2024-01-26T07:03:49.380Z,12.10
2024-01-26T07:09:25.405Z,12.00
2024-01-26T07:12:01.729Z,11.80
2024-01-26T07:14:35.425Z,11.90
2024-01-26T07:19:55.407Z,11.90
2024-01-26T07:22:30.721Z,11.80
2024-01-26T07:25:04.183Z,11.80
2024-01-26T07:27:38.771Z,11.80
2024-01-26T07:30:13.163Z,11.80
2024-01-26T07:32:47.659Z,11.80
2024-01-26T07:35:27.269Z,11.80
2024-01-26T07:38:11.951Z,11.80
2024-01-26T07:40:47.446Z,11.70
2024-01-26T07:43:21.277Z,11.70
2024-01-26T07:45:55.228Z,11.60
2024-01-26T07:48:28.885Z,11.50
2024-01-26T07:51:02.462Z,11.40
2024-01-26T07:56:25.452Z,11.30
2024-01-26T07:58:59.717Z,11.30
2024-01-26T08:01:36.602Z,11.20
2024-01-26T08:04:10.789Z,11.10
2024-01-26T08:09:37.499Z,11.00
2024-01-26T08:14:58.767Z,10.90
2024-01-26T08:17:32.886Z,10.80
2024-01-26T08:20:12.476Z,10.80
2024-01-26T08:23:12.661Z,10.80
2024-01-26T08:25:56.696Z,10.80
2024-01-26T08:31:31.394Z,10.60
2024-01-26T08:34:05.262Z,10.50
2024-01-26T08:36:39.136Z,10.40
2024-01-26T08:39:14.588Z,10.30
2024-01-26T08:41:49.974Z,10.20
2024-01-26T08:47:15.029Z,10.10
2024-01-26T08:49:49.422Z,10.00
2024-01-26T08:52:24.133Z,10.00
2024-01-26T08:54:58.104Z,9.90
2024-01-26T08:57:33.799Z,9.90
2024-01-26T09:00:11.760Z,9.90
2024-01-26T09:02:46.249Z,9.90
2024-01-26T09:05:20.231Z,9.90
2024-01-26T09:07:53.835Z,9.90
2024-01-26T09:10:29.067Z,9.80
2024-01-26T09:13:05.885Z,9.90
2024-01-26T09:15:39.597Z,9.80
2024-01-26T09:18:13.375Z,9.70
2024-01-26T09:20:51.316Z,9.70
2024-01-26T09:23:25.160Z,9.60
2024-01-26T09:26:00.940Z,9.60
2024-01-26T09:28:37.450Z,9.50
2024-01-26T09:31:11.367Z,9.50
2024-01-26T09:33:45.327Z,9.50
2024-01-26T09:36:19.134Z,9.50
2024-01-26T09:38:53.349Z,9.40
2024-01-26T09:41:27.438Z,9.40
2024-01-26T09:44:04.696Z,9.30
2024-01-26T09:46:39.968Z,9.30
2024-01-26T09:49:14.874Z,9.20
2024-01-26T09:51:48.827Z,9.20
2024-01-26T09:54:26.033Z,9.10
2024-01-26T09:56:59.976Z,9.10
2024-01-26T09:59:36.248Z,9.00
2024-01-26T10:02:12.053Z,9.00
2024-01-26T10:04:46.418Z,8.90
2024-01-26T10:07:20.410Z,8.90
2024-01-26T10:09:55.620Z,8.90
2024-01-26T10:12:30.254Z,8.80
2024-01-26T10:15:13.122Z,8.80
2024-01-26T10:17:48.167Z,8.80
2024-01-26T10:20:23.631Z,8.70
2024-01-26T10:22:58.452Z,8.70
2024-01-26T10:25:33.266Z,8.70
2024-01-26T10:28:14.392Z,8.60
2024-01-26T10:30:54.296Z,8.60
2024-01-26T10:33:28.784Z,8.60
2024-01-26T10:36:05.987Z,8.60
2024-01-26T10:38:43.147Z,8.50
2024-01-26T10:41:23.746Z,8.50
2024-01-26T10:43:58.508Z,8.50
2024-01-26T10:46:34.559Z,8.40
2024-01-26T10:49:09.099Z,8.40
2024-01-26T10:51:44.029Z,8.40
2024-01-26T10:54:18.481Z,8.40
2024-01-26T10:56:52.288Z,8.40
2024-01-26T10:59:28.080Z,8.40
2024-01-26T11:02:04.935Z,8.30
2024-01-26T11:04:38.920Z,8.30
2024-01-26T11:07:13.634Z,8.30
2024-01-26T11:09:52.049Z,8.30
2024-01-26T11:12:29.105Z,8.20
2024-01-26T11:15:13.610Z,8.20
2024-01-26T11:17:56.090Z,8.20
2024-01-26T11:20:34.579Z,8.20
2024-01-26T11:23:11.248Z,8.20
2024-01-26T11:25:46.908Z,8.10
2024-01-26T11:28:21.861Z,8.10
2024-01-26T11:31:00.066Z,8.20
2024-01-26T11:33:44.282Z,8.10
2024-01-26T11:36:24.993Z,8.20
2024-01-26T11:38:59.991Z,8.20
2024-01-26T11:41:34.804Z,8.20
2024-01-26T11:44:13.943Z,8.20
2024-01-26T11:46:50.540Z,8.20
2024-01-26T11:49:26.174Z,8.20
2024-01-26T11:52:00.118Z,8.20
2024-01-26T11:54:34.120Z,8.20
2024-01-26T11:57:08.281Z,8.10
2024-01-26T11:59:42.402Z,8.10
2024-01-26T12:02:16.201Z,8.10
2024-01-26T12:04:52.526Z,8.10
2024-01-26T12:07:27.058Z,8.10
2024-01-26T12:10:01.027Z,8.10
2024-01-26T12:12:35.620Z,8.10
2024-01-26T12:15:11.196Z,8.00
2024-01-26T12:17:46.117Z,8.00
2024-01-26T12:20:24.023Z,8.00
2024-01-26T12:23:00.387Z,8.00
2024-01-26T12:25:34.403Z,8.00
2024-01-26T12:28:08.956Z,8.00
2024-01-26T12:30:48.697Z,8.00
2024-01-26T12:33:23.554Z,8.10
2024-01-26T12:36:03.377Z,8.10
2024-01-26T12:38:37.304Z,8.10
2024-01-26T12:41:10.864Z,8.10
2024-01-26T12:43:45.542Z,8.10
2024-01-26T12:46:19.834Z,8.10
2024-01-26T12:48:53.772Z,8.20
2024-01-26T12:51:31.902Z,8.10
2024-01-26T12:54:05.787Z,8.10
2024-01-26T12:56:39.729Z,8.10
2024-01-26T12:59:13.434Z,8.00
2024-01-26T13:01:48.341Z,7.90
2024-01-26T13:04:22.095Z,7.90
2024-01-26T13:06:59.181Z,7.90
2024-01-26T13:09:33.453Z,7.90
2024-01-26T13:12:07.543Z,7.90
2024-01-26T13:14:41.353Z,7.90
2024-01-26T13:17:15.003Z,7.90
2024-01-26T13:19:51.812Z,7.90
2024-01-26T13:22:31.226Z,7.90
2024-01-26T13:25:06.146Z,7.90
2024-01-26T13:27:40.052Z,7.90
2024-01-26T13:30:15.807Z,7.90
2024-01-26T13:32:50.576Z,7.80
2024-01-26T13:35:26.124Z,7.90
2024-01-26T13:38:03.714Z,7.80
2024-01-26T13:40:36.982Z,7.80
2024-01-26T13:43:11.181Z,7.90
2024-01-26T13:45:45.537Z,7.80
2024-01-26T13:48:19.529Z,7.90
2024-01-26T13:50:55.157Z,7.90
2024-01-26T13:53:31.415Z,7.90
2024-01-26T13:56:05.655Z,8.00
2024-01-26T13:58:39.297Z,8.00
2024-01-26T14:01:16.883Z,7.90
2024-01-26T14:03:51.156Z,8.00
2024-01-26T14:06:25.298Z,7.90
2024-01-26T14:09:00.597Z,8.00
2024-01-26T14:11:36.518Z,8.00
2024-01-26T14:14:10.471Z,8.00
2024-01-26T14:16:45.210Z,8.00
2024-01-26T14:19:19.005Z,8.00
2024-01-26T14:21:54.585Z,8.00
2024-01-26T14:24:32.009Z,7.90
2024-01-26T14:27:06.104Z,8.00
2024-01-26T14:29:41.498Z,8.00
2024-01-26T14:32:15.369Z,8.00
2024-01-26T14:34:49.102Z,8.00
2024-01-26T14:37:23.789Z,8.00
2024-01-26T14:39:59.975Z,8.00
2024-01-26T14:42:34.634Z,7.90
2024-01-26T14:45:10.530Z,7.90
2024-01-26T14:47:45.401Z,7.90
2024-01-26T14:50:19.356Z,7.90
2024-01-26T14:52:52.976Z,7.90
2024-01-26T14:55:30.821Z,7.90
2024-01-26T14:58:06.318Z,7.90
2024-01-26T15:00:40.396Z,7.90
2024-01-26T15:03:15.401Z,7.90
2024-01-26T15:05:50.649Z,7.90
2024-01-26T15:10:44.845Z,7.90
2024-01-26T15:13:18.754Z,8.00
2024-01-26T15:15:53.090Z,8.10
2024-01-26T15:20:10.793Z,8.00
